Time;durP1;ratioP1;P1;durP2;ratioP2;P2;SDS_P1;SDS_P2;PMS_P1;PMS_P2;Temp;Humidity;BMP_temperature;BMP_pressure;BME280_temperature;BME280_humidity;BME280_pressure;Samples;Min_cycle;Max_cycle;Signal;HPM_P1;HPM_P2
2021/05/28 00:01:04;;;;;;;23.33;10.70;;;;;;;16.99;67.20;100345.47;126238;1099;104236;-76
2021/05/28 00:03:34;;;;;;;23.20;10.87;;;;;;;16.99;67.04;100338.39;126299;1097;104254;-76
2021/05/28 00:06:03;;;;;;;22.37;9.83;;;;;;;16.94;67.44;100336.58;126281;1098;104143;-76
2021/05/28 00:08:33;;;;;;;26.40;10.47;;;;;;;16.92;67.50;100333.03;126307;1099;104290;-76
2021/05/28 00:11:02;;;;;;;25.33;10.37;;;;;;;16.92;67.55;100330.38;126264;1099;104271;-77
2021/05/28 00:13:34;;;;;;;21.07;10.43;;;;;;;16.88;67.17;100335.66;126268;1099;104252;-76
2021/05/28 00:16:04;;;;;;;26.37;11.47;;;;;;;16.86;67.12;100339.16;126267;1099;104326;-76
2021/05/28 00:18:33;;;;;;;22.77;10.90;;;;;;;16.82;67.63;100338.23;126293;1099;104136;-76
2021/05/28 00:21:03;;;;;;;25.20;11.30;;;;;;;16.79;67.25;100338.21;126249;1099;104140;-76
2021/05/28 00:23:32;;;;;;;22.30;10.70;;;;;;;16.79;67.43;100342.63;126306;1099;105302;-77
2021/05/28 00:26:01;;;;;;;20.80;9.97;;;;;;;16.78;67.64;100343.50;125380;1099;104139;-76
2021/05/28 00:28:30;;;;;;;19.67;9.67;;;;;;;16.76;67.67;100339.95;126265;1099;104165;-76
2021/05/28 00:30:59;;;;;;;24.50;10.23;;;;;;;16.77;67.57;100336.45;126272;1099;104137;-77
2021/05/28 00:33:28;;;;;;;27.13;10.13;;;;;;;16.75;68.50;100331.13;126305;1099;104137;-76
2021/05/28 00:35:58;;;;;;;20.50;9.70;;;;;;;16.76;68.09;100324.06;126327;1099;104162;-76
2021/05/28 00:38:27;;;;;;;20.13;8.97;;;;;;;16.76;67.96;100327.59;126298;1099;104140;-77
2021/05/28 00:40:56;;;;;;;22.00;9.43;;;;;;;16.78;67.82;100312.61;126233;1098;104316;-76
2021/05/28 00:43:25;;;;;;;21.53;9.77;;;;;;;16.79;68.05;100306.41;126318;1099;104137;-76
2021/05/28 00:45:55;;;;;;;20.57;9.00;;;;;;;16.80;67.75;100305.55;126282;1099;104256;-76
2021/05/28 00:48:26;;;;;;;17.70;8.93;;;;;;;16.77;68.33;100302.88;126310;1099;104242;-76
2021/05/28 00:50:56;;;;;;;22.33;9.63;;;;;;;16.74;67.99;100301.98;126217;1098;104165;-76
2021/05/28 00:53:27;;;;;;;23.77;10.17;;;;;;;16.71;68.13;100311.66;126227;1099;104338;-75
2021/05/28 00:55:57;;;;;;;22.73;9.90;;;;;;;16.70;68.16;100307.25;126277;1099;104175;-76
2021/05/28 00:58:27;;;;;;;26.23;11.23;;;;;;;16.68;68.34;100308.98;126314;1099;104302;-77
2021/05/28 01:00:56;;;;;;;18.40;9.57;;;;;;;16.65;68.66;100310.73;126274;1099;104146;-76
2021/05/28 01:03:26;;;;;;;18.97;9.13;;;;;;;16.62;68.79;100305.41;126330;1099;104215;-76
2021/05/28 01:05:55;;;;;;;19.97;9.40;;;;;;;16.60;68.18;100296.57;125353;1099;104230;-75
2021/05/28 01:08:24;;;;;;;18.50;8.80;;;;;;;16.60;68.64;100299.22;126310;1099;104140;-76
2021/05/28 01:10:53;;;;;;;19.27;9.47;;;;;;;16.59;68.58;100300.08;126262;1099;104139;-76
2021/05/28 01:13:23;;;;;;;21.73;8.93;;;;;;;16.60;68.53;100293.92;126306;1099;105288;-77
2021/05/28 01:15:52;;;;;;;21.70;9.37;;;;;;;16.61;68.99;100293.02;126264;1099;104343;-76
2021/05/28 01:18:21;;;;;;;22.20;9.77;;;;;;;16.65;68.44;100294.84;126256;1099;104354;-76
2021/05/28 01:20:50;;;;;;;18.70;9.37;;;;;;;16.66;69.04;100284.25;126303;1099;104140;-76
2021/05/28 01:23:20;;;;;;;20.87;9.97;;;;;;;16.67;68.97;100287.77;126231;1099;110106;-76
2021/05/28 01:25:50;;;;;;;19.63;9.50;;;;;;;16.64;69.11;100271.86;126279;1099;104140;-76
2021/05/28 01:28:20;;;;;;;19.07;8.97;;;;;;;16.60;68.96;100275.38;126324;1099;104137;-76
2021/05/28 01:30:50;;;;;;;22.13;9.70;;;;;;;16.59;68.54;100270.95;126227;1099;104146;-77
2021/05/28 01:33:20;;;;;;;21.23;9.40;;;;;;;16.58;69.34;100270.07;126193;1099;104297;-77
2021/05/28 01:35:49;;;;;;;20.37;8.83;;;;;;;16.59;68.84;100268.30;126296;1099;104149;-76
2021/05/28 01:38:18;;;;;;;19.20;8.50;;;;;;;16.60;69.23;100275.38;126245;1099;105211;-75
2021/05/28 01:40:48;;;;;;;17.17;8.73;;;;;;;16.60;69.15;100275.38;126314;1098;104146;-76
2021/05/28 01:43:17;;;;;;;22.87;9.90;;;;;;;16.58;68.75;100275.38;126192;1099;104201;-77
2021/05/28 01:45:46;;;;;;;21.10;9.03;;;;;;;16.59;68.82;100274.47;126280;1099;104146;-76
2021/05/28 01:48:16;;;;;;;19.90;9.40;;;;;;;16.57;69.40;100275.36;126286;1099;104207;-76
2021/05/28 01:50:46;;;;;;;20.80;9.63;;;;;;;16.55;69.52;100275.34;126330;1099;104143;-76
2021/05/28 01:53:18;;;;;;;19.63;9.30;;;;;;;16.50;69.34;100271.75;126228;1099;104473;-75
2021/05/28 01:55:48;;;;;;;19.23;8.90;;;;;;;16.48;69.35;100269.09;126266;1099;104316;-76
2021/05/28 01:58:19;;;;;;;19.97;8.87;;;;;;;16.42;68.76;100261.09;126312;1099;104142;-76
2021/05/28 02:00:51;;;;;;;19.27;8.80;;;;;;;16.42;69.58;100262.87;126310;1099;104143;-77
2021/05/28 02:03:20;;;;;;;21.03;8.87;;;;;;;16.40;69.23;100257.56;126281;1098;104153;-75
2021/05/28 02:05:49;;;;;;;17.67;8.50;;;;;;;16.40;69.62;100256.69;126319;1099;104271;-77
2021/05/28 02:08:19;;;;;;;18.27;8.80;;;;;;;16.42;68.93;100249.63;126281;1099;104217;-77
2021/05/28 02:10:48;;;;;;;18.33;9.30;;;;;;;16.43;69.47;100246.99;126328;1099;104178;-77
2021/05/28 02:13:17;;;;;;;20.23;9.33;;;;;;;16.38;69.60;100254.02;126268;1099;104162;-77
2021/05/28 02:15:47;;;;;;;21.87;10.17;;;;;;;16.30;68.92;100253.08;126305;1099;104238;-77
2021/05/28 02:18:16;;;;;;;20.33;8.90;;;;;;;16.23;69.42;100254.77;126315;1099;104287;-76
2021/05/28 02:20:45;;;;;;;17.20;8.43;;;;;;;16.18;69.92;100244.14;126276;1099;104217;-76
2021/05/28 02:23:14;;;;;;;16.80;8.70;;;;;;;16.12;69.66;100249.38;126282;1099;104285;-75
2021/05/28 02:25:43;;;;;;;18.60;8.70;;;;;;;16.15;69.30;100251.17;126257;1099;104150;-75
2021/05/28 02:28:12;;;;;;;19.83;9.20;;;;;;;16.16;69.86;100255.61;126315;1099;104140;-76
2021/05/28 02:30:41;;;;;;;19.40;8.67;;;;;;;16.20;69.92;100244.15;126306;1099;104943;-76
2021/05/28 02:33:11;;;;;;;21.13;8.97;;;;;;;16.24;70.17;100243.31;126229;1098;104316;-76
2021/05/28 02:35:44;;;;;;;19.10;9.03;;;;;;;16.26;70.17;100238.91;126332;1099;104149;-76
2021/05/28 02:38:16;;;;;;;21.13;9.47;;;;;;;16.30;70.16;100238.08;126283;1099;104143;-76
2021/05/28 02:40:45;;;;;;;24.87;10.30;;;;;;;16.30;69.54;100243.37;126337;1098;104194;-77
2021/05/28 02:43:14;;;;;;;26.17;11.23;;;;;;;16.25;69.27;100234.52;126247;1099;104216;-77
2021/05/28 02:45:43;;;;;;;23.13;11.40;;;;;;;16.21;69.50;100239.77;126261;1099;104137;-75
2021/05/28 02:48:12;;;;;;;28.30;12.20;;;;;;;16.18;70.03;100238.84;126283;1099;104216;-76
2021/05/28 02:50:41;;;;;;;29.30;11.17;;;;;;;16.12;70.09;100246.73;126316;1099;104176;-76
2021/05/28 02:53:11;;;;;;;25.10;11.00;;;;;;;16.08;69.77;100244.95;126285;1099;105482;-76
2021/05/28 02:55:40;;;;;;;23.47;11.23;;;;;;;16.09;70.00;100246.70;126317;1099;104143;-76
2021/05/28 02:58:09;;;;;;;24.87;11.30;;;;;;;16.12;70.31;100244.08;126302;1099;104168;-75
2021/05/28 03:00:40;;;;;;;22.83;10.80;;;;;;;16.15;69.71;100240.59;126294;1099;104178;-76
2021/05/28 03:03:09;;;;;;;20.10;9.65;;;;;;;16.22;69.57;100236.22;126246;1099;104149;-77
2021/05/28 03:05:38;;;;;;;25.03;10.33;;;;;;;16.32;70.40;100240.73;126302;1099;104165;-76
2021/05/28 03:08:07;;;;;;;27.27;10.90;;;;;;;16.35;69.84;100238.11;126330;1099;104142;-77
2021/05/28 03:10:36;;;;;;;21.80;10.27;;;;;;;16.35;70.29;100235.46;126271;1099;104143;-76
2021/05/28 03:13:05;;;;;;;20.27;10.67;;;;;;;16.31;69.50;100239.86;126302;1099;104153;-77
2021/05/28 03:15:35;;;;;;;22.63;10.00;;;;;;;16.23;70.24;100238.01;126110;1099;109845;-76
2021/05/28 03:18:12;;;;;;;22.03;10.23;;;;;;;16.14;70.28;100234.42;126253;1099;104152;-76
2021/05/28 03:20:46;;;;;;;26.73;10.70;;;;;;;16.10;69.77;100232.61;126312;1099;104247;-76
2021/05/28 03:23:14;;;;;;;;;;;;;;;16.13;70.16;100237.05;126281;1099;104140;-77
2021/05/28 03:25:45;;;;;;;22.23;10.83;;;;;;;16.19;70.25;100231.81;126200;1099;104678;-75
2021/05/28 03:28:14;;;;;;;23.07;10.50;;;;;;;16.30;70.08;100238.08;126257;1099;104169;-75
2021/05/28 03:30:44;;;;;;;21.67;10.67;;;;;;;16.42;70.26;100239.91;125336;1099;104755;-77
2021/05/28 03:33:13;;;;;;;23.00;11.70;;;;;;;16.50;70.42;100232.02;126281;1098;104146;-77
2021/05/28 03:35:42;;;;;;;23.00;11.87;;;;;;;16.59;70.02;100240.04;126222;1098;104271;-76
2021/05/28 03:38:11;;;;;;;29.90;13.20;;;;;;;16.69;70.79;100239.23;126334;1099;104131;-77
2021/05/28 03:40:42;;;;;;;27.90;13.07;;;;;;;16.75;70.04;100243.70;126293;1099;104137;-77
2021/05/28 03:43:14;;;;;;;24.83;11.63;;;;;;;16.82;69.96;100244.61;126241;1099;104143;-76
2021/05/28 03:45:44;;;;;;;26.67;12.73;;;;;;;16.86;70.11;100251.72;126184;1099;104175;-76
2021/05/28 03:48:14;;;;;;;25.77;13.40;;;;;;;16.92;70.03;100253.53;126184;1099;104142;-76
2021/05/28 03:50:45;;;;;;;24.93;12.63;;;;;;;17.00;69.87;100252.70;126225;1099;104165;-75
2021/05/28 03:53:15;;;;;;;23.57;13.00;;;;;;;17.07;70.20;100253.62;126215;1099;104618;-75
2021/05/28 03:55:44;;;;;;;31.03;14.37;;;;;;;17.14;70.05;100254.52;126240;1099;104137;-76
2021/05/28 03:58:13;;;;;;;28.17;14.90;;;;;;;17.19;70.49;100255.45;126196;1099;104198;-76
2021/05/28 04:00:42;;;;;;;30.37;15.37;;;;;;;17.23;70.29;100252.83;126191;1099;104258;-76
2021/05/28 04:03:12;;;;;;;27.60;14.17;;;;;;;17.28;70.02;100249.28;126275;1098;104147;-76
2021/05/28 04:05:41;;;;;;;26.70;15.13;;;;;;;17.34;70.20;100254.62;126064;1099;104226;-74
2021/05/28 04:08:17;;;;;;;23.60;13.97;;;;;;;17.42;70.04;100247.57;126229;1099;104585;-74
2021/05/28 04:10:49;;;;;;;27.63;14.40;;;;;;;17.51;70.06;100257.34;126143;1099;104294;-74
2021/05/28 04:13:28;;;;;;;36.10;14.57;;;;;;;17.57;70.33;100260.88;126149;1099;104630;-74
2021/05/28 04:16:18;;;;;;;31.03;15.20;;;;;;;17.70;70.27;100255.62;126072;1099;104297;-75
2021/05/28 04:18:48;;;;;;;28.07;16.27;;;;;;;17.75;70.12;100261.84;126075;1099;104233;-74
2021/05/28 04:21:17;;;;;;;29.10;15.80;;;;;;;17.78;70.11;100257.42;125244;1099;104165;-74
2021/05/28 04:23:46;;;;;;;25.47;14.40;;;;;;;17.85;70.27;100266.27;126069;1098;104176;-74
2021/05/28 04:26:16;;;;;;;30.53;14.63;;;;;;;17.92;70.09;100251.27;126189;1097;104217;-74
2021/05/28 04:28:56;;;;;;;27.93;13.77;;;;;;;17.99;70.16;100260.16;126212;1099;104140;-74
2021/05/28 04:31:28;;;;;;;26.53;13.13;;;;;;;18.04;70.05;100258.38;125348;1099;104174;-75
2021/05/28 04:34:02;;;;;;;28.27;13.47;;;;;;;18.13;69.74;100258.39;126267;1099;104165;-75
2021/05/28 04:36:31;;;;;;;32.53;16.17;;;;;;;18.23;70.00;100254.88;126248;1099;104223;-75
2021/05/28 04:39:00;;;;;;;28.40;15.27;;;;;;;18.31;69.98;100247.78;126143;1099;104216;-76
2021/05/28 04:41:30;;;;;;;30.07;16.10;;;;;;;18.34;69.83;100252.22;126152;1099;104137;-76
2021/05/28 04:44:00;;;;;;;30.27;17.40;;;;;;;18.35;69.56;100253.97;126214;1099;104243;-76
2021/05/28 04:46:30;;;;;;;29.50;16.60;;;;;;;18.32;69.68;100254.88;126103;1099;104175;-75
2021/05/28 04:48:59;;;;;;;34.00;17.27;;;;;;;18.30;69.82;100253.09;126104;1099;104204;-76
2021/05/28 04:51:28;;;;;;;29.87;16.47;;;;;;;18.29;69.43;100249.56;126010;1099;104306;-74
2021/05/28 04:53:57;;;;;;;26.93;15.63;;;;;;;18.29;69.68;100246.00;125426;1099;104195;-74
2021/05/28 04:56:27;;;;;;;30.97;16.93;;;;;;;18.33;69.49;100250.44;126044;1099;104181;-74
2021/05/28 04:58:56;;;;;;;25.33;15.77;;;;;;;18.38;69.51;100253.09;125305;1099;104246;-74
2021/05/28 05:01:26;;;;;;;30.13;16.40;;;;;;;18.41;69.26;100237.16;125914;1099;104187;-73
2021/05/28 05:03:55;;;;;;;26.83;17.03;;;;;;;18.48;69.60;100236.23;125971;1099;104322;-74
2021/05/28 05:06:24;;;;;;;27.40;16.60;;;;;;;18.55;69.28;100243.33;126006;1098;104254;-74
2021/05/28 05:08:53;;;;;;;27.47;14.83;;;;;;;18.66;69.29;100248.63;125973;1099;104213;-73
2021/05/28 05:11:22;;;;;;;26.53;14.20;;;;;;;18.79;69.40;100250.40;125962;1099;104211;-74
2021/05/28 05:13:54;;;;;;;26.03;14.10;;;;;;;18.95;69.27;100253.93;125924;1099;104274;-74
2021/05/28 05:16:23;;;;;;;24.47;13.73;;;;;;;19.06;68.88;100250.34;125911;1099;104304;-74
2021/05/28 05:18:52;;;;;;;25.87;14.33;;;;;;;19.18;68.88;100248.55;125888;1099;104181;-74
2021/05/28 05:21:22;;;;;;;26.40;15.30;;;;;;;19.31;68.86;100249.38;126033;1099;104306;-73
2021/05/28 05:23:51;;;;;;;28.37;17.23;;;;;;;19.46;69.32;100236.89;126027;1099;104150;-74
2021/05/28 05:26:20;;;;;;;32.93;17.90;;;;;;;19.58;69.29;100242.14;125994;1099;104253;-73
2021/05/28 05:28:49;;;;;;;33.47;18.70;;;;;;;19.69;68.68;100237.64;125911;1099;104373;-74
2021/05/28 05:31:19;;;;;;;30.80;19.27;;;;;;;19.80;69.32;100228.75;125894;1099;104149;-75
2021/05/28 05:33:50;;;;;;;29.50;18.07;;;;;;;19.93;68.55;100230.45;126193;1099;104169;-75
2021/05/28 05:36:20;;;;;;;26.70;15.40;;;;;;;20.03;68.73;100218.81;125788;1099;104204;-74
2021/05/28 05:38:49;;;;;;;26.13;15.77;;;;;;;20.11;68.17;100222.29;125846;1099;104236;-74
2021/05/28 05:41:19;;;;;;;28.13;15.93;;;;;;;20.20;68.46;100207.16;125866;1099;104241;-75
2021/05/28 05:43:49;;;;;;;24.40;14.93;;;;;;;20.33;68.27;100216.78;125754;1099;104197;-74
2021/05/28 05:46:18;;;;;;;26.77;14.23;;;;;;;20.38;68.17;100219.41;125677;1099;104146;-74
2021/05/28 05:48:53;;;;;;;22.87;13.20;;;;;;;20.43;67.97;100226.48;125670;1098;105862;-75
2021/05/28 05:51:22;;;;;;;23.63;11.50;;;;;;;20.43;67.43;100218.48;125713;1099;104328;-74
2021/05/28 05:53:52;;;;;;;22.27;11.80;;;;;;;20.39;67.27;100221.19;125710;1099;104202;-75
2021/05/28 05:56:21;;;;;;;27.07;11.27;;;;;;;20.44;67.71;100222.02;125937;1099;104245;-74
2021/05/28 05:58:52;;;;;;;19.60;9.80;;;;;;;20.51;67.12;100220.20;125745;1099;110303;-74
2021/05/28 06:01:22;;;;;;;22.93;9.90;;;;;;;20.62;68.23;100228.97;125807;1099;104201;-75
2021/05/28 06:03:52;;;;;;;19.27;9.40;;;;;;;20.67;67.61;100224.50;125743;1099;104168;-75
2021/05/28 06:06:23;;;;;;;16.87;7.83;;;;;;;20.69;66.99;100224.48;126008;1099;104248;-75
2021/05/28 06:08:57;;;;;;;16.43;6.83;;;;;;;20.69;67.36;100222.69;125228;1099;104229;-75
2021/05/28 06:11:28;;;;;;;18.53;7.10;;;;;;;20.71;67.48;100220.91;125913;1099;104239;-75
2021/05/28 06:14:00;;;;;;;15.60;7.20;;;;;;;20.72;67.48;100219.13;125963;1098;104172;-75
2021/05/28 06:16:30;;;;;;;18.13;7.30;;;;;;;20.73;67.29;100215.56;125836;1099;104296;-76
2021/05/28 06:19:02;;;;;;;16.23;6.90;;;;;;;20.73;67.10;100211.11;125792;1099;104169;-77
2021/05/28 06:21:49;;;;;;;13.33;6.40;;;;;;;20.79;66.89;100207.50;124920;1099;104163;-76
2021/05/28 06:24:27;;;;;;;12.45;6.12;;;;;;;20.82;66.31;100203.01;125161;1099;104169;-77
2021/05/28 06:27:03;;;;;;;13.50;5.90;;;;;;;20.85;66.29;100209.20;125077;1098;104175;-75
2021/05/28 06:29:38;;;;;;;13.80;6.17;;;;;;;20.86;66.11;100203.84;125032;1099;119007;-75
2021/05/28 06:32:08;;;;;;;11.17;5.73;;;;;;;20.93;66.10;100200.22;125023;1099;104274;-75
2021/05/28 06:34:43;;;;;;;16.73;6.37;;;;;;;20.98;65.90;100198.38;125089;1099;104207;-76
2021/05/28 06:37:14;;;;;;;15.67;6.97;;;;;;;21.05;65.84;100201.88;125143;1099;104271;-77
2021/05/28 06:39:49;;;;;;;14.90;6.73;;;;;;;21.10;66.25;100199.12;125036;1098;104159;-76
2021/05/28 06:42:36;;;;;;;12.97;6.13;;;;;;;21.15;65.57;100194.62;124976;1102;104210;-78
2021/05/28 06:45:07;;;;;;;12.78;6.20;;;;;;;21.26;66.26;100195.36;125096;1102;104283;-75
2021/05/28 06:47:37;;;;;;;11.07;5.43;;;;;;;21.37;65.15;100195.22;125077;1102;102402;-76
2021/05/28 06:50:18;;;;;;;14.90;6.47;;;;;;;21.52;65.73;100183.50;124980;1102;109450;-76
2021/05/28 06:53:04;;;;;;;11.93;6.27;;;;;;;21.70;64.90;100185.00;124894;1102;104182;-76
2021/05/28 06:55:34;;;;;;;12.00;5.80;;;;;;;21.87;65.26;100179.39;125013;1099;104219;-76
2021/05/28 06:58:04;;;;;;;10.10;5.83;;;;;;;22.08;64.84;100183.52;124909;1099;105669;-76
2021/05/28 07:00:36;;;;;;;16.60;5.17;;;;;;;22.28;65.07;100182.28;125054;1099;104287;-75
2021/05/28 07:03:08;;;;;;;;;;;;;;;22.50;64.35;100177.45;125137;1100;104370;-76
2021/05/28 07:05:38;;;;;;;13.53;5.60;;;;;;;22.67;64.39;100180.69;124975;1099;104219;-77
2021/05/28 07:08:07;;;;;;;10.10;5.47;;;;;;;22.80;64.08;100168.84;124961;1099;104303;-77
2021/05/28 07:10:48;;;;;;;16.87;5.50;;;;;;;22.97;63.91;100170.31;124994;1099;104335;-77
2021/05/28 07:13:19;;;;;;;10.47;4.80;;;;;;;23.18;63.74;100177.02;125257;1099;104221;-76
2021/05/28 07:15:51;;;;;;;12.10;5.23;;;;;;;23.36;63.30;100170.41;125357;1099;104165;-75
2021/05/28 07:18:21;;;;;;;10.30;5.07;;;;;;;23.53;63.21;100172.70;125315;1099;104259;-74
2021/05/28 07:21:01;;;;;;;11.57;5.30;;;;;;;23.55;63.03;100170.86;125052;1099;117832;-74
2021/05/28 07:23:31;;;;;;;9.87;4.73;;;;;;;23.58;62.70;100173.47;125848;1102;102250;-74
2021/05/28 07:26:22;;;;;;;11.77;4.80;;;;;;;23.59;62.53;100161.84;124963;1101;104242;-74
2021/05/28 07:28:51;;;;;;;9.73;4.90;;;;;;;23.66;62.45;100165.25;125340;1099;104274;-75
2021/05/28 07:31:21;;;;;;;7.00;4.13;;;;;;;23.71;61.81;100166.02;125017;1099;104214;-76
2021/05/28 07:33:54;;;;;;;9.90;4.60;;;;;;;23.71;61.79;100165.14;124994;1102;104632;-76
2021/05/28 07:36:26;;;;;;;8.33;5.30;;;;;;;23.69;61.29;100171.41;125111;1099;104220;-75
2021/05/28 07:38:57;;;;;;;8.90;5.03;;;;;;;23.67;61.37;100167.89;125034;1102;104214;-78
2021/05/28 07:41:29;;;;;;;10.63;5.20;;;;;;;23.67;61.02;100154.50;125019;1102;101938;-77
2021/05/28 07:43:59;;;;;;;12.50;5.70;;;;;;;23.73;61.20;100157.94;125023;1099;104239;-76
2021/05/28 07:46:30;;;;;;;9.27;4.60;;;;;;;23.83;60.97;100152.33;125085;1099;104284;-77
2021/05/28 07:49:05;;;;;;;10.63;5.00;;;;;;;23.99;60.64;100158.21;125972;1099;104191;-78
2021/05/28 07:51:45;;;;;;;7.00;4.83;;;;;;;24.16;60.52;100164.95;125073;1099;102657;-77
2021/05/28 07:54:36;;;;;;;;;;;;;;;24.34;59.48;100156.43;125997;1099;104157;-77
2021/05/28 07:57:08;;;;;;;9.73;5.03;;;;;;;24.63;60.01;100159.27;125717;1099;104166;-76
2021/05/28 07:59:49;;;;;;;7.33;4.70;;;;;;;24.87;59.53;100153.22;125824;1099;104169;-77
2021/05/28 08:02:22;;;;;;;7.10;4.30;;;;;;;25.15;59.32;100159.55;125657;1098;104219;-78
2021/05/28 08:04:57;;;;;;;7.55;4.50;;;;;;;25.35;59.31;100151.80;125824;1098;104200;-79
2021/05/28 08:10:46;;;;;;;5.67;4.00;;;;;;;25.95;58.63;100151.70;125235;1099;104182;-78
2021/05/28 08:13:19;;;;;;;7.55;3.90;;;;;;;26.16;58.64;100137.56;125805;1099;104194;-77
2021/05/28 08:15:53;;;;;;;6.30;3.60;;;;;;;26.27;57.03;100157.80;126015;1098;104162;-76
2021/05/28 08:18:24;;;;;;;8.83;4.07;;;;;;;26.26;57.61;100139.94;125901;1099;104314;-77
2021/05/28 08:20:56;;;;;;;6.40;3.63;;;;;;;26.26;57.03;100145.31;125845;1099;105369;-77
2021/05/28 08:23:26;;;;;;;5.97;3.70;;;;;;;26.25;56.33;100141.72;125802;1099;102798;-78
2021/05/28 08:26:02;;;;;;;5.17;3.63;;;;;;;26.14;56.69;100142.09;125866;1098;104563;-77
2021/05/28 08:28:34;;;;;;;5.90;3.40;;;;;;;26.04;56.03;100145.16;125015;1099;104303;-77
2021/05/28 08:31:07;;;;;;;6.87;3.50;;;;;;;25.98;55.68;100146.25;125045;1099;104143;-77
2021/05/28 08:33:46;;;;;;;5.67;3.00;;;;;;;25.83;55.69;100132.34;125056;1099;104207;-77
2021/05/28 08:36:17;;;;;;;4.07;2.97;;;;;;;25.73;54.91;100141.66;125068;1099;104140;-78
2021/05/28 08:38:47;;;;;;;6.97;3.13;;;;;;;25.64;54.65;100141.95;125201;1099;104156;-78
2021/05/28 08:41:18;;;;;;;10.20;3.47;;;;;;;25.59;54.99;100134.05;125131;1099;104348;-77
2021/05/28 08:43:47;;;;;;;5.53;3.30;;;;;;;25.48;54.60;100134.39;125131;1099;104334;-77
2021/05/28 08:46:20;;;;;;;5.27;3.23;;;;;;;25.37;54.36;100127.58;125000;1099;104137;-77
2021/05/28 08:48:51;;;;;;;7.30;3.30;;;;;;;25.24;54.66;100130.65;125083;1099;104265;-79
2021/05/28 08:51:21;;;;;;;8.00;3.60;;;;;;;25.21;54.82;100140.58;125127;1102;104287;-76
2021/05/28 08:53:50;;;;;;;11.03;3.70;;;;;;;25.08;54.41;100143.63;125030;1099;104959;-77
2021/05/28 08:56:22;;;;;;;9.97;3.80;;;;;;;25.03;54.30;100144.72;125006;1099;104227;-75
2021/05/28 08:58:52;;;;;;;9.30;3.80;;;;;;;25.00;54.62;100142.98;125036;1099;104424;-75
2021/05/28 09:01:21;;;;;;;7.80;3.60;;;;;;;24.99;54.19;100138.53;125859;1099;104137;-76
2021/05/28 09:04:00;;;;;;;5.25;3.40;;;;;;;24.99;54.17;100137.67;125857;1099;104258;-75
2021/05/28 09:06:42;;;;;;;7.13;3.17;;;;;;;24.94;53.90;100132.44;125921;1099;104258;-75
2021/05/28 09:09:14;;;;;;;6.47;3.50;;;;;;;24.97;53.57;100136.84;125882;1099;104161;-76
2021/05/28 09:11:58;;;;;;;8.77;3.80;;;;;;;24.98;53.59;100131.44;125594;1099;104178;-76
2021/05/28 09:14:33;;;;;;;5.10;3.43;;;;;;;25.16;53.41;100131.80;125978;1099;104194;-77
2021/05/28 09:17:04;;;;;;;8.17;3.83;;;;;;;25.37;53.20;100122.21;125853;1099;104204;-76
2021/05/28 09:19:35;;;;;;;6.87;3.80;;;;;;;25.45;52.75;100126.42;125094;1099;104409;-75
2021/05/28 09:22:06;;;;;;;4.50;3.20;;;;;;;25.60;52.71;100122.38;125830;1099;104175;-75
2021/05/28 09:24:39;;;;;;;6.37;2.95;;;;;;;25.77;52.82;100118.24;125974;1099;104248;-75
2021/05/28 09:27:22;;;;;;;7.87;3.80;;;;;;;25.94;52.04;100123.92;125877;1099;104175;-77
2021/05/28 09:30:07;;;;;;;6.95;3.65;;;;;;;26.07;51.50;100129.81;125955;1099;104274;-76
2021/05/28 09:32:39;;;;;;;6.77;3.53;;;;;;;26.15;51.92;100122.35;125159;1099;104322;-76
2021/05/28 09:35:14;;;;;;;4.53;3.40;;;;;;;26.21;51.32;100115.89;125864;1099;104939;-76
2021/05/28 09:37:46;;;;;;;5.17;3.20;;;;;;;26.25;51.77;100116.66;125713;1099;104261;-78
2021/05/28 09:40:18;;;;;;;6.73;3.00;;;;;;;26.29;50.83;100113.80;125712;1099;104162;-76
2021/05/28 09:42:52;;;;;;;4.10;3.20;;;;;;;26.41;50.99;100111.60;125021;1099;104172;-76
2021/05/28 09:45:30;;;;;;;6.12;3.60;;;;;;;26.57;50.67;100115.50;125677;1099;104174;-77
2021/05/28 09:48:02;;;;;;;5.53;3.20;;;;;;;26.73;50.87;100115.84;125642;1099;104191;-75
2021/05/28 09:50:33;;;;;;;5.57;3.30;;;;;;;26.87;50.39;100113.50;125728;1099;104143;-76
2021/05/28 09:53:05;;;;;;;3.80;3.17;;;;;;;26.96;49.99;100114.07;125906;1099;104249;-77
2021/05/28 09:55:36;;;;;;;6.90;3.30;;;;;;;26.93;49.88;100108.80;125669;1099;104226;-77
2021/05/28 09:58:08;;;;;;;9.73;3.80;;;;;;;26.85;49.31;100107.30;125640;1099;104171;-76
2021/05/28 10:00:39;;;;;;;6.87;3.30;;;;;;;26.70;49.18;100107.88;125012;1099;104178;-76
2021/05/28 10:03:22;;;;;;;6.97;4.13;;;;;;;26.60;49.32;100111.80;125580;1099;104201;-78
2021/05/28 10:05:58;;;;;;;6.08;3.87;;;;;;;26.66;49.51;100109.81;124993;1099;105212;-78
2021/05/28 10:08:28;;;;;;;7.47;3.90;;;;;;;26.81;49.46;100096.71;124961;1099;105140;-75
2021/05/28 10:11:01;;;;;;;7.97;3.93;;;;;;;27.01;49.69;100104.02;125600;1099;104293;-76
2021/05/28 10:13:33;;;;;;;7.80;3.80;;;;;;;27.13;49.11;100095.47;126596;1099;102553;-75
2021/05/28 10:16:04;;;;;;;5.78;3.50;;;;;;;27.23;48.84;100099.53;125641;1099;104163;-73
2021/05/28 10:18:36;;;;;;;7.37;3.60;;;;;;;27.37;49.12;100092.77;125478;1099;104336;-74
2021/05/28 10:21:08;;;;;;;6.63;3.60;;;;;;;27.47;48.26;100095.95;125576;1099;104239;-75
2021/05/28 10:23:38;;;;;;;6.53;3.33;;;;;;;27.55;48.52;100083.94;125561;1099;104175;-75
2021/05/28 10:26:09;;;;;;;3.90;3.13;;;;;;;27.69;48.22;100087.85;125620;1099;104188;-74
2021/05/28 10:28:42;;;;;;;7.77;3.40;;;;;;;27.82;48.05;100085.54;126405;1098;104184;-75
2021/05/28 10:31:11;;;;;;;4.78;3.33;;;;;;;27.98;47.84;100087.52;125670;1099;104226;-75
2021/05/28 10:33:48;;;;;;;7.60;3.50;;;;;;;28.00;47.39;100090.15;125892;1098;104168;-75
2021/05/28 10:36:42;;;;;;;4.70;3.40;;;;;;;28.01;47.25;100091.05;125963;1099;104178;-75
2021/05/28 10:39:19;;;;;;;8.07;3.60;;;;;;;27.92;47.38;100085.05;125396;1099;104278;-75
2021/05/28 10:42:09;;;;;;;7.50;3.60;;;;;;;27.92;47.48;100081.48;125880;1099;104586;-76
2021/05/28 10:44:45;;;;;;;6.57;3.70;;;;;;;27.97;47.21;100084.89;124968;1099;104357;-77
2021/05/28 10:47:41;;;;;;;8.53;4.00;;;;;;;27.96;46.75;100075.94;125005;1099;104335;-76
2021/05/28 10:50:16;;;;;;;5.97;3.60;;;;;;;27.91;46.88;100082.45;124917;1102;104580;-76
2021/05/28 10:53:09;;;;;;;8.53;4.43;;;;;;;27.86;46.19;100084.45;124947;1102;104309;-78
2021/05/28 10:56:03;;;;;;;8.57;4.03;;;;;;;27.77;46.75;100077.65;125039;1102;104344;-78
2021/05/28 10:58:49;;;;;;;11.43;4.60;;;;;;;27.76;46.91;100071.36;124870;1102;104242;-77
2021/05/28 11:01:42;;;;;;;11.17;4.50;;;;;;;27.76;46.74;100074.05;125057;1102;104211;-76
2021/05/28 11:04:21;;;;;;;6.27;3.97;;;;;;;27.83;46.64;100063.91;125036;1102;104162;-77
2021/05/28 11:07:20;;;;;;;11.03;4.20;;;;;;;27.89;46.40;100063.64;124767;1102;104162;-77
2021/05/28 11:09:52;;;;;;;8.87;4.17;;;;;;;28.14;46.33;100057.19;124767;1102;104302;-76
2021/05/28 11:12:43;;;;;;;8.05;3.92;;;;;;;28.37;46.19;100060.69;124782;1102;104322;-79
2021/05/28 11:15:16;;;;;;;6.27;3.70;;;;;;;28.59;46.26;100056.08;124929;1102;104213;-76
2021/05/28 11:17:59;;;;;;;7.67;3.80;;;;;;;28.62;45.63;100058.64;124946;1101;104345;-78
2021/05/28 11:20:35;;;;;;;;;;;;;;;28.48;45.09;100050.28;125101;1102;104194;-77
2021/05/28 11:23:15;;;;;;;7.97;4.00;;;;;;;28.33;45.16;100050.04;124982;1100;104246;-77
2021/05/28 11:25:48;;;;;;;6.87;4.00;;;;;;;28.31;45.44;100048.34;124985;1102;106600;-77
2021/05/28 11:28:18;;;;;;;10.23;4.07;;;;;;;28.19;45.04;100049.79;125080;1102;104152;-80